sensor_id;sensor_type;location;lat;lon;timestamp;P1;durP1;ratioP1;P2;durP2;ratioP2
59390;SDS011;53405;57.012;40.984;2022-10-19T00:01:05;8.00;;;2.65;;
59390;SDS011;53405;57.012;40.984;2022-10-19T00:03:53;4.82;;;2.40;;
59390;SDS011;53405;57.012;40.984;2022-10-19T00:06:41;5.85;;;1.88;;
59390;SDS011;53405;57.012;40.984;2022-10-19T00:09:30;4.68;;;2.10;;
59390;SDS011;53405;57.012;40.984;2022-10-19T00:12:18;4.47;;;2.05;;
59390;SDS011;53405;57.012;40.984;2022-10-19T00:15:06;5.18;;;2.25;;
59390;SDS011;53405;57.012;40.984;2022-10-19T00:17:54;5.22;;;2.45;;
59390;SDS011;53405;57.012;40.984;2022-10-19T00:20:42;6.05;;;2.30;;
59390;SDS011;53405;57.012;40.984;2022-10-19T00:23:29;6.10;;;2.10;;
59390;SDS011;53405;57.012;40.984;2022-10-19T00:26:17;7.93;;;2.22;;
59390;SDS011;53405;57.012;40.984;2022-10-19T00:29:05;4.05;;;1.92;;
59390;SDS011;53405;57.012;40.984;2022-10-19T00:31:53;6.28;;;2.00;;
59390;SDS011;53405;57.012;40.984;2022-10-19T00:34:41;4.80;;;1.63;;
59390;SDS011;53405;57.012;40.984;2022-10-19T00:37:28;4.45;;;2.10;;
59390;SDS011;53405;57.012;40.984;2022-10-19T00:40:16;5.35;;;1.95;;
59390;SDS011;53405;57.012;40.984;2022-10-19T00:43:07;3.42;;;1.48;;
59390;SDS011;53405;57.012;40.984;2022-10-19T00:45:59;3.78;;;1.45;;
59390;SDS011;53405;57.012;40.984;2022-10-19T00:48:46;3.85;;;1.15;;
59390;SDS011;53405;57.012;40.984;2022-10-19T00:51:40;3.40;;;1.42;;
59390;SDS011;53405;57.012;40.984;2022-10-19T00:54:31;3.42;;;1.20;;
59390;SDS011;53405;57.012;40.984;2022-10-19T00:57:19;3.22;;;1.13;;
59390;SDS011;53405;57.012;40.984;2022-10-19T01:00:09;3.22;;;1.08;;
59390;SDS011;53405;57.012;40.984;2022-10-19T01:02:56;3.38;;;1.20;;
59390;SDS011;53405;57.012;40.984;2022-10-19T01:05:45;1.77;;;0.90;;
59390;SDS011;53405;57.012;40.984;2022-10-19T01:08:32;3.00;;;1.20;;
59390;SDS011;53405;57.012;40.984;2022-10-19T01:27:10;3.70;;;1.52;;
59390;SDS011;53405;57.012;40.984;2022-10-19T01:30:23;3.65;;;1.33;;
59390;SDS011;53405;57.012;40.984;2022-10-19T01:36:31;4.18;;;1.85;;
59390;SDS011;53405;57.012;40.984;2022-10-19T01:42:23;3.58;;;1.77;;
59390;SDS011;53405;57.012;40.984;2022-10-19T01:45:27;5.15;;;1.85;;
59390;SDS011;53405;57.012;40.984;2022-10-19T01:48:30;5.13;;;2.33;;
59390;SDS011;53405;57.012;40.984;2022-10-19T01:51:33;4.18;;;2.08;;
59390;SDS011;53405;57.012;40.984;2022-10-19T01:54:27;6.55;;;2.30;;
59390;SDS011;53405;57.012;40.984;2022-10-19T01:57:37;4.45;;;2.08;;
59390;SDS011;53405;57.012;40.984;2022-10-19T02:00:28;3.92;;;1.95;;
59390;SDS011;53405;57.012;40.984;2022-10-19T02:03:18;6.72;;;2.30;;
59390;SDS011;53405;57.012;40.984;2022-10-19T02:06:07;7.85;;;2.50;;
59390;SDS011;53405;57.012;40.984;2022-10-19T02:08:57;4.18;;;2.10;;
59390;SDS011;53405;57.012;40.984;2022-10-19T02:11:45;4.45;;;1.90;;
59390;SDS011;53405;57.012;40.984;2022-10-19T02:14:43;4.75;;;2.33;;
59390;SDS011;53405;57.012;40.984;2022-10-19T02:17:35;5.38;;;2.45;;
59390;SDS011;53405;57.012;40.984;2022-10-19T02:20:28;8.18;;;2.78;;
59390;SDS011;53405;57.012;40.984;2022-10-19T02:23:16;5.93;;;2.72;;
59390;SDS011;53405;57.012;40.984;2022-10-19T02:26:06;5.80;;;2.63;;
59390;SDS011;53405;57.012;40.984;2022-10-19T02:28:54;6.35;;;2.38;;
59390;SDS011;53405;57.012;40.984;2022-10-19T02:31:42;6.15;;;2.70;;
59390;SDS011;53405;57.012;40.984;2022-10-19T02:37:22;6.70;;;2.73;;
59390;SDS011;53405;57.012;40.984;2022-10-19T02:40:14;3.95;;;2.10;;
59390;SDS011;53405;57.012;40.984;2022-10-19T02:43:06;7.32;;;2.55;;
59390;SDS011;53405;57.012;40.984;2022-10-19T02:46:00;6.55;;;2.22;;
59390;SDS011;53405;57.012;40.984;2022-10-19T02:48:51;6.10;;;3.10;;
59390;SDS011;53405;57.012;40.984;2022-10-19T02:51:54;5.53;;;2.72;;
59390;SDS011;53405;57.012;40.984;2022-10-19T02:54:44;6.00;;;2.92;;
59390;SDS011;53405;57.012;40.984;2022-10-19T02:57:32;5.40;;;2.72;;
59390;SDS011;53405;57.012;40.984;2022-10-19T03:00:20;5.65;;;2.45;;
59390;SDS011;53405;57.012;40.984;2022-10-19T03:03:08;6.35;;;2.67;;
59390;SDS011;53405;57.012;40.984;2022-10-19T03:05:56;5.75;;;2.83;;
59390;SDS011;53405;57.012;40.984;2022-10-19T03:08:44;6.70;;;2.80;;
59390;SDS011;53405;57.012;40.984;2022-10-19T03:11:31;4.57;;;2.65;;
59390;SDS011;53405;57.012;40.984;2022-10-19T03:14:19;7.65;;;2.97;;
59390;SDS011;53405;57.012;40.984;2022-10-19T03:17:06;5.05;;;2.83;;
59390;SDS011;53405;57.012;40.984;2022-10-19T03:19:55;6.72;;;3.25;;
59390;SDS011;53405;57.012;40.984;2022-10-19T03:22:42;7.93;;;3.40;;
59390;SDS011;53405;57.012;40.984;2022-10-19T03:25:29;8.27;;;3.58;;
59390;SDS011;53405;57.012;40.984;2022-10-19T03:28:17;7.55;;;3.90;;
59390;SDS011;53405;57.012;40.984;2022-10-19T03:31:04;6.88;;;3.28;;
59390;SDS011;53405;57.012;40.984;2022-10-19T03:33:52;7.10;;;3.45;;
59390;SDS011;53405;57.012;40.984;2022-10-19T03:36:39;8.00;;;4.03;;
59390;SDS011;53405;57.012;40.984;2022-10-19T03:39:27;8.15;;;4.07;;
59390;SDS011;53405;57.012;40.984;2022-10-19T03:42:15;7.75;;;4.70;;
59390;SDS011;53405;57.012;40.984;2022-10-19T03:45:02;7.95;;;4.28;;
59390;SDS011;53405;57.012;40.984;2022-10-19T03:47:50;8.27;;;4.60;;
59390;SDS011;53405;57.012;40.984;2022-10-19T03:50:38;7.55;;;4.20;;
59390;SDS011;53405;57.012;40.984;2022-10-19T03:53:26;7.80;;;3.58;;
59390;SDS011;53405;57.012;40.984;2022-10-19T03:56:14;6.65;;;3.90;;
59390;SDS011;53405;57.012;40.984;2022-10-19T03:59:04;7.57;;;4.22;;
59390;SDS011;53405;57.012;40.984;2022-10-19T04:01:52;7.25;;;4.20;;
59390;SDS011;53405;57.012;40.984;2022-10-19T04:04:41;8.80;;;4.20;;
59390;SDS011;53405;57.012;40.984;2022-10-19T04:07:28;8.25;;;4.32;;
59390;SDS011;53405;57.012;40.984;2022-10-19T04:10:15;10.30;;;5.22;;
59390;SDS011;53405;57.012;40.984;2022-10-19T04:13:03;10.45;;;4.75;;
59390;SDS011;53405;57.012;40.984;2022-10-19T04:15:51;9.68;;;4.55;;
59390;SDS011;53405;57.012;40.984;2022-10-19T04:18:39;8.85;;;5.20;;
59390;SDS011;53405;57.012;40.984;2022-10-19T04:24:17;7.65;;;3.80;;
59390;SDS011;53405;57.012;40.984;2022-10-19T04:27:05;8.63;;;5.20;;
59390;SDS011;53405;57.012;40.984;2022-10-19T04:29:53;10.50;;;4.80;;
59390;SDS011;53405;57.012;40.984;2022-10-19T04:32:40;7.32;;;4.45;;
59390;SDS011;53405;57.012;40.984;2022-10-19T04:35:28;10.90;;;7.05;;
59390;SDS011;53405;57.012;40.984;2022-10-19T04:38:15;10.45;;;4.38;;
59390;SDS011;53405;57.012;40.984;2022-10-19T04:41:03;8.68;;;5.22;;
59390;SDS011;53405;57.012;40.984;2022-10-19T04:43:54;8.65;;;5.03;;
59390;SDS011;53405;57.012;40.984;2022-10-19T04:46:46;11.35;;;6.55;;
59390;SDS011;53405;57.012;40.984;2022-10-19T04:49:33;13.88;;;8.15;;
59390;SDS011;53405;57.012;40.984;2022-10-19T04:52:21;9.15;;;4.55;;
59390;SDS011;53405;57.012;40.984;2022-10-19T04:55:08;10.23;;;4.80;;
59390;SDS011;53405;57.012;40.984;2022-10-19T04:57:56;8.38;;;4.88;;
59390;SDS011;53405;57.012;40.984;2022-10-19T05:00:43;8.90;;;5.40;;
59390;SDS011;53405;57.012;40.984;2022-10-19T05:03:31;11.35;;;5.53;;
59390;SDS011;53405;57.012;40.984;2022-10-19T05:06:18;9.88;;;5.60;;
59390;SDS011;53405;57.012;40.984;2022-10-19T05:09:06;9.77;;;5.10;;
59390;SDS011;53405;57.012;40.984;2022-10-19T05:11:53;7.20;;;4.15;;
59390;SDS011;53405;57.012;40.984;2022-10-19T05:14:41;8.93;;;4.75;;
59390;SDS011;53405;57.012;40.984;2022-10-19T05:17:29;8.05;;;4.57;;
59390;SDS011;53405;57.012;40.984;2022-10-19T05:20:18;7.63;;;4.50;;
59390;SDS011;53405;57.012;40.984;2022-10-19T05:23:05;7.00;;;4.32;;
59390;SDS011;53405;57.012;40.984;2022-10-19T05:26:06;7.82;;;4.43;;
59390;SDS011;53405;57.012;40.984;2022-10-19T05:28:58;8.50;;;4.80;;
59390;SDS011;53405;57.012;40.984;2022-10-19T05:31:52;9.23;;;4.50;;
59390;SDS011;53405;57.012;40.984;2022-10-19T05:34:40;7.93;;;4.35;;
59390;SDS011;53405;57.012;40.984;2022-10-19T05:37:28;9.18;;;4.95;;
59390;SDS011;53405;57.012;40.984;2022-10-19T05:40:16;10.93;;;5.57;;
59390;SDS011;53405;57.012;40.984;2022-10-19T05:43:17;13.48;;;5.93;;
59390;SDS011;53405;57.012;40.984;2022-10-19T05:46:05;10.45;;;5.50;;
59390;SDS011;53405;57.012;40.984;2022-10-19T05:48:54;9.85;;;5.55;;
59390;SDS011;53405;57.012;40.984;2022-10-19T05:51:42;8.90;;;5.15;;
59390;SDS011;53405;57.012;40.984;2022-10-19T05:54:30;8.15;;;4.40;;
59390;SDS011;53405;57.012;40.984;2022-10-19T05:57:19;6.95;;;3.42;;
59390;SDS011;53405;57.012;40.984;2022-10-19T06:00:07;8.18;;;3.20;;
59390;SDS011;53405;57.012;40.984;2022-10-19T06:02:57;7.03;;;3.72;;
59390;SDS011;53405;57.012;40.984;2022-10-19T06:05:45;5.55;;;3.08;;
59390;SDS011;53405;57.012;40.984;2022-10-19T06:08:32;5.28;;;3.13;;
59390;SDS011;53405;57.012;40.984;2022-10-19T06:11:21;6.35;;;2.90;;
59390;SDS011;53405;57.012;40.984;2022-10-19T06:14:12;7.28;;;2.63;;
59390;SDS011;53405;57.012;40.984;2022-10-19T06:17:01;4.28;;;2.58;;
59390;SDS011;53405;57.012;40.984;2022-10-19T06:19:48;3.97;;;2.38;;
59390;SDS011;53405;57.012;40.984;2022-10-19T06:22:36;5.20;;;2.15;;
59390;SDS011;53405;57.012;40.984;2022-10-19T06:25:23;3.35;;;1.92;;
59390;SDS011;53405;57.012;40.984;2022-10-19T06:28:11;3.70;;;2.28;;
59390;SDS011;53405;57.012;40.984;2022-10-19T06:30:59;5.97;;;2.58;;
59390;SDS011;53405;57.012;40.984;2022-10-19T06:33:46;3.83;;;2.28;;
59390;SDS011;53405;57.012;40.984;2022-10-19T06:36:34;4.20;;;2.28;;
59390;SDS011;53405;57.012;40.984;2022-10-19T06:39:21;4.78;;;2.45;;
59390;SDS011;53405;57.012;40.984;2022-10-19T06:42:09;5.50;;;2.70;;
59390;SDS011;53405;57.012;40.984;2022-10-19T06:44:56;6.40;;;2.65;;
59390;SDS011;53405;57.012;40.984;2022-10-19T06:47:44;3.67;;;2.35;;
59390;SDS011;53405;57.012;40.984;2022-10-19T06:50:36;5.38;;;2.83;;
59390;SDS011;53405;57.012;40.984;2022-10-19T06:53:24;5.55;;;2.80;;
59390;SDS011;53405;57.012;40.984;2022-10-19T06:56:13;4.60;;;2.75;;
59390;SDS011;53405;57.012;40.984;2022-10-19T06:59:00;5.38;;;2.70;;
59390;SDS011;53405;57.012;40.984;2022-10-19T07:01:48;4.18;;;2.70;;
59390;SDS011;53405;57.012;40.984;2022-10-19T07:04:36;5.55;;;3.38;;
59390;SDS011;53405;57.012;40.984;2022-10-19T07:07:24;4.88;;;2.63;;
59390;SDS011;53405;57.012;40.984;2022-10-19T07:10:11;6.13;;;2.63;;
59390;SDS011;53405;57.012;40.984;2022-10-19T07:12:59;4.63;;;2.88;;
59390;SDS011;53405;57.012;40.984;2022-10-19T07:15:46;4.82;;;2.72;;
59390;SDS011;53405;57.012;40.984;2022-10-19T07:18:35;5.15;;;2.83;;
59390;SDS011;53405;57.012;40.984;2022-10-19T07:21:24;6.22;;;3.10;;
59390;SDS011;53405;57.012;40.984;2022-10-19T07:24:11;5.50;;;3.35;;
59390;SDS011;53405;57.012;40.984;2022-10-19T07:26:59;5.65;;;3.30;;
59390;SDS011;53405;57.012;40.984;2022-10-19T07:29:46;7.05;;;3.53;;
59390;SDS011;53405;57.012;40.984;2022-10-19T07:32:34;6.82;;;3.63;;
59390;SDS011;53405;57.012;40.984;2022-10-19T07:35:21;5.72;;;3.30;;
59390;SDS011;53405;57.012;40.984;2022-10-19T07:38:09;5.97;;;3.28;;
59390;SDS011;53405;57.012;40.984;2022-10-19T07:41:00;5.82;;;3.00;;
59390;SDS011;53405;57.012;40.984;2022-10-19T07:43:55;6.63;;;3.10;;
59390;SDS011;53405;57.012;40.984;2022-10-19T07:46:44;5.63;;;2.47;;
59390;SDS011;53405;57.012;40.984;2022-10-19T07:49:31;5.88;;;2.72;;
59390;SDS011;53405;57.012;40.984;2022-10-19T07:52:19;5.00;;;2.70;;
59390;SDS011;53405;57.012;40.984;2022-10-19T07:55:08;3.67;;;2.05;;
59390;SDS011;53405;57.012;40.984;2022-10-19T07:57:55;4.97;;;2.60;;
59390;SDS011;53405;57.012;40.984;2022-10-19T08:00:47;4.55;;;2.80;;
59390;SDS011;53405;57.012;40.984;2022-10-19T08:03:36;4.65;;;2.90;;
59390;SDS011;53405;57.012;40.984;2022-10-19T08:06:44;4.78;;;2.80;;
59390;SDS011;53405;57.012;40.984;2022-10-19T08:09:31;6.45;;;2.90;;
59390;SDS011;53405;57.012;40.984;2022-10-19T08:12:37;5.50;;;3.42;;
59390;SDS011;53405;57.012;40.984;2022-10-19T08:15:24;4.10;;;2.50;;
59390;SDS011;53405;57.012;40.984;2022-10-19T08:18:12;9.43;;;3.03;;
59390;SDS011;53405;57.012;40.984;2022-10-19T08:21:00;6.40;;;3.35;;
59390;SDS011;53405;57.012;40.984;2022-10-19T08:23:48;4.40;;;2.70;;
59390;SDS011;53405;57.012;40.984;2022-10-19T08:26:36;7.70;;;3.95;;
59390;SDS011;53405;57.012;40.984;2022-10-19T08:32:13;7.20;;;3.30;;
59390;SDS011;53405;57.012;40.984;2022-10-19T08:35:01;7.68;;;4.32;;
59390;SDS011;53405;57.012;40.984;2022-10-19T08:37:50;7.82;;;4.20;;
59390;SDS011;53405;57.012;40.984;2022-10-19T08:40:37;9.25;;;4.90;;
59390;SDS011;53405;57.012;40.984;2022-10-19T08:43:29;9.80;;;4.25;;
59390;SDS011;53405;57.012;40.984;2022-10-19T08:49:28;11.70;;;4.18;;
59390;SDS011;53405;57.012;40.984;2022-10-19T08:52:19;10.23;;;4.25;;
59390;SDS011;53405;57.012;40.984;2022-10-19T08:55:12;9.75;;;5.82;;
59390;SDS011;53405;57.012;40.984;2022-10-19T09:01:23;9.40;;;5.00;;
59390;SDS011;53405;57.012;40.984;2022-10-19T09:04:36;10.15;;;3.65;;
59390;SDS011;53405;57.012;40.984;2022-10-19T09:07:28;7.13;;;4.07;;
59390;SDS011;53405;57.012;40.984;2022-10-19T09:10:24;6.78;;;3.47;;
59390;SDS011;53405;57.012;40.984;2022-10-19T09:13:16;7.93;;;3.85;;
59390;SDS011;53405;57.012;40.984;2022-10-19T09:16:13;7.60;;;4.57;;
59390;SDS011;53405;57.012;40.984;2022-10-19T09:19:37;7.68;;;3.85;;
59390;SDS011;53405;57.012;40.984;2022-10-19T09:22:19;8.90;;;4.78;;
59390;SDS011;53405;57.012;40.984;2022-10-19T09:25:18;9.70;;;4.97;;
59390;SDS011;53405;57.012;40.984;2022-10-19T09:31:26;7.65;;;4.35;;
59390;SDS011;53405;57.012;40.984;2022-10-19T09:34:25;9.18;;;5.00;;
59390;SDS011;53405;57.012;40.984;2022-10-19T09:37:16;10.40;;;4.80;;
59390;SDS011;53405;57.012;40.984;2022-10-19T09:40:18;9.88;;;5.20;;
59390;SDS011;53405;57.012;40.984;2022-10-19T09:43:08;10.75;;;5.88;;
59390;SDS011;53405;57.012;40.984;2022-10-19T09:46:09;8.80;;;5.00;;
59390;SDS011;53405;57.012;40.984;2022-10-19T09:49:05;9.98;;;5.90;;
59390;SDS011;53405;57.012;40.984;2022-10-19T09:51:53;9.10;;;5.13;;
59390;SDS011;53405;57.012;40.984;2022-10-19T09:54:41;10.10;;;6.95;;
59390;SDS011;53405;57.012;40.984;2022-10-19T09:57:30;9.77;;;5.95;;
59390;SDS011;53405;57.012;40.984;2022-10-19T10:03:06;18.25;;;12.52;;
59390;SDS011;53405;57.012;40.984;2022-10-19T10:05:55;10.85;;;7.47;;
59390;SDS011;53405;57.012;40.984;2022-10-19T10:08:45;8.32;;;5.47;;
59390;SDS011;53405;57.012;40.984;2022-10-19T10:11:35;9.70;;;5.50;;
59390;SDS011;53405;57.012;40.984;2022-10-19T10:14:26;10.60;;;6.60;;
59390;SDS011;53405;57.012;40.984;2022-10-19T10:17:20;9.35;;;4.68;;
59390;SDS011;53405;57.012;40.984;2022-10-19T10:20:30;8.20;;;4.90;;
59390;SDS011;53405;57.012;40.984;2022-10-19T10:23:22;12.02;;;6.10;;
59390;SDS011;53405;57.012;40.984;2022-10-19T10:26:16;11.15;;;7.38;;
59390;SDS011;53405;57.012;40.984;2022-10-19T10:29:16;9.77;;;6.25;;
59390;SDS011;53405;57.012;40.984;2022-10-19T10:34:58;8.65;;;4.78;;
59390;SDS011;53405;57.012;40.984;2022-10-19T10:37:49;10.35;;;5.10;;
59390;SDS011;53405;57.012;40.984;2022-10-19T10:40:37;7.00;;;3.70;;
59390;SDS011;53405;57.012;40.984;2022-10-19T10:43:30;6.72;;;3.17;;
59390;SDS011;53405;57.012;40.984;2022-10-19T10:46:26;7.75;;;4.03;;
59390;SDS011;53405;57.012;40.984;2022-10-19T10:49:20;11.60;;;4.97;;
59390;SDS011;53405;57.012;40.984;2022-10-19T10:52:14;9.30;;;4.68;;
59390;SDS011;53405;57.012;40.984;2022-10-19T10:55:13;9.88;;;4.68;;
59390;SDS011;53405;57.012;40.984;2022-10-19T10:58:18;9.07;;;4.95;;
59390;SDS011;53405;57.012;40.984;2022-10-19T11:01:33;12.82;;;5.03;;
59390;SDS011;53405;57.012;40.984;2022-10-19T11:04:34;10.60;;;5.68;;
59390;SDS011;53405;57.012;40.984;2022-10-19T11:13:22;7.97;;;3.75;;
59390;SDS011;53405;57.012;40.984;2022-10-19T11:16:33;8.15;;;3.60;;
59390;SDS011;53405;57.012;40.984;2022-10-19T11:19:28;10.73;;;3.97;;
59390;SDS011;53405;57.012;40.984;2022-10-19T11:31:38;15.35;;;5.03;;
59390;SDS011;53405;57.012;40.984;2022-10-19T11:44:20;12.18;;;6.20;;
59390;SDS011;53405;57.012;40.984;2022-10-19T11:47:28;16.02;;;6.40;;
59390;SDS011;53405;57.012;40.984;2022-10-19T12:00:08;9.32;;;4.38;;
59390;SDS011;53405;57.012;40.984;2022-10-19T12:15:42;14.65;;;7.82;;
59390;SDS011;53405;57.012;40.984;2022-10-19T12:21:28;10.73;;;4.47;;
59390;SDS011;53405;57.012;40.984;2022-10-19T12:24:20;9.88;;;4.10;;
59390;SDS011;53405;57.012;40.984;2022-10-19T12:27:13;15.93;;;4.53;;
59390;SDS011;53405;57.012;40.984;2022-10-19T12:30:05;20.42;;;5.88;;
59390;SDS011;53405;57.012;40.984;2022-10-19T12:33:03;14.68;;;4.18;;
59390;SDS011;53405;57.012;40.984;2022-10-19T12:48:22;12.35;;;3.55;;
59390;SDS011;53405;57.012;40.984;2022-10-19T12:51:11;10.95;;;3.55;;
59390;SDS011;53405;57.012;40.984;2022-10-19T12:54:06;7.68;;;2.70;;
59390;SDS011;53405;57.012;40.984;2022-10-19T12:56:55;7.38;;;2.30;;
59390;SDS011;53405;57.012;40.984;2022-10-19T13:00:05;6.93;;;3.00;;
59390;SDS011;53405;57.012;40.984;2022-10-19T13:03:13;8.90;;;3.42;;
59390;SDS011;53405;57.012;40.984;2022-10-19T13:12:28;5.57;;;2.67;;
59390;SDS011;53405;57.012;40.984;2022-10-19T13:24:37;8.10;;;3.00;;
59390;SDS011;53405;57.012;40.984;2022-10-19T13:27:25;13.88;;;2.58;;
59390;SDS011;53405;57.012;40.984;2022-10-19T13:36:19;6.45;;;3.05;;
59390;SDS011;53405;57.012;40.984;2022-10-19T13:39:10;8.73;;;3.25;;
59390;SDS011;53405;57.012;40.984;2022-10-19T13:41:59;7.90;;;3.63;;
59390;SDS011;53405;57.012;40.984;2022-10-19T13:44:47;6.93;;;3.60;;
59390;SDS011;53405;57.012;40.984;2022-10-19T13:47:38;9.35;;;3.95;;
59390;SDS011;53405;57.012;40.984;2022-10-19T13:59:46;9.65;;;4.70;;
59390;SDS011;53405;57.012;40.984;2022-10-19T14:06:21;10.93;;;4.85;;
59390;SDS011;53405;57.012;40.984;2022-10-19T14:12:46;9.73;;;6.10;;
59390;SDS011;53405;57.012;40.984;2022-10-19T14:15:34;8.30;;;5.43;;
59390;SDS011;53405;57.012;40.984;2022-10-19T14:18:23;13.18;;;6.90;;
59390;SDS011;53405;57.012;40.984;2022-10-19T14:21:28;8.07;;;5.30;;
59390;SDS011;53405;57.012;40.984;2022-10-19T14:24:18;8.30;;;4.18;;
59390;SDS011;53405;57.012;40.984;2022-10-19T14:27:10;8.30;;;4.47;;
59390;SDS011;53405;57.012;40.984;2022-10-19T14:33:09;13.80;;;5.75;;
59390;SDS011;53405;57.012;40.984;2022-10-19T14:39:33;10.07;;;5.90;;
59390;SDS011;53405;57.012;40.984;2022-10-19T14:42:20;10.07;;;6.22;;
59390;SDS011;53405;57.012;40.984;2022-10-19T14:45:09;19.88;;;7.63;;
59390;SDS011;53405;57.012;40.984;2022-10-19T14:48:01;18.95;;;7.97;;
59390;SDS011;53405;57.012;40.984;2022-10-19T14:50:54;16.45;;;8.82;;
59390;SDS011;53405;57.012;40.984;2022-10-19T14:53:48;21.25;;;10.55;;
59390;SDS011;53405;57.012;40.984;2022-10-19T14:59:48;26.35;;;11.10;;
59390;SDS011;53405;57.012;40.984;2022-10-19T15:02:39;22.77;;;12.23;;
59390;SDS011;53405;57.012;40.984;2022-10-19T15:05:33;23.85;;;11.38;;
59390;SDS011;53405;57.012;40.984;2022-10-19T15:14:33;23.42;;;11.75;;
59390;SDS011;53405;57.012;40.984;2022-10-19T15:17:24;24.85;;;11.32;;
59390;SDS011;53405;57.012;40.984;2022-10-19T15:20:24;24.15;;;12.85;;
59390;SDS011;53405;57.012;40.984;2022-10-19T15:26:33;13.13;;;6.70;;
59390;SDS011;53405;57.012;40.984;2022-10-19T15:29:22;12.65;;;5.55;;
59390;SDS011;53405;57.012;40.984;2022-10-19T15:32:17;12.15;;;6.00;;
59390;SDS011;53405;57.012;40.984;2022-10-19T15:35:10;17.98;;;10.07;;
59390;SDS011;53405;57.012;40.984;2022-10-19T15:38:15;8.30;;;4.07;;
59390;SDS011;53405;57.012;40.984;2022-10-19T15:41:14;7.10;;;3.58;;
59390;SDS011;53405;57.012;40.984;2022-10-19T15:44:05;9.10;;;3.55;;
59390;SDS011;53405;57.012;40.984;2022-10-19T15:50:06;9.57;;;3.15;;
59390;SDS011;53405;57.012;40.984;2022-10-19T15:53:23;6.53;;;3.33;;
59390;SDS011;53405;57.012;40.984;2022-10-19T15:56:12;7.72;;;3.50;;
59390;SDS011;53405;57.012;40.984;2022-10-19T15:59:02;6.00;;;3.15;;
59390;SDS011;53405;57.012;40.984;2022-10-19T16:01:52;6.60;;;3.55;;
59390;SDS011;53405;57.012;40.984;2022-10-19T16:04:42;7.72;;;3.42;;
59390;SDS011;53405;57.012;40.984;2022-10-19T16:07:30;10.55;;;4.40;;
59390;SDS011;53405;57.012;40.984;2022-10-19T16:10:21;11.98;;;6.32;;
59390;SDS011;53405;57.012;40.984;2022-10-19T16:13:10;4.47;;;2.55;;
59390;SDS011;53405;57.012;40.984;2022-10-19T16:16:04;5.85;;;2.40;;
59390;SDS011;53405;57.012;40.984;2022-10-19T16:18:57;6.93;;;2.72;;
59390;SDS011;53405;57.012;40.984;2022-10-19T16:21:45;6.22;;;3.30;;
59390;SDS011;53405;57.012;40.984;2022-10-19T16:24:36;6.60;;;3.17;;
59390;SDS011;53405;57.012;40.984;2022-10-19T16:27:25;5.20;;;3.22;;
59390;SDS011;53405;57.012;40.984;2022-10-19T16:30:12;6.95;;;3.20;;
59390;SDS011;53405;57.012;40.984;2022-10-19T16:33:00;8.15;;;3.40;;
59390;SDS011;53405;57.012;40.984;2022-10-19T16:35:48;7.65;;;4.15;;
59390;SDS011;53405;57.012;40.984;2022-10-19T16:38:35;6.15;;;3.55;;
59390;SDS011;53405;57.012;40.984;2022-10-19T16:41:23;6.25;;;3.47;;
59390;SDS011;53405;57.012;40.984;2022-10-19T16:44:11;7.80;;;3.88;;
59390;SDS011;53405;57.012;40.984;2022-10-19T16:46:59;7.20;;;4.20;;
59390;SDS011;53405;57.012;40.984;2022-10-19T16:49:46;8.73;;;4.40;;
59390;SDS011;53405;57.012;40.984;2022-10-19T16:52:34;7.68;;;4.13;;
59390;SDS011;53405;57.012;40.984;2022-10-19T16:55:21;10.27;;;4.72;;
59390;SDS011;53405;57.012;40.984;2022-10-19T16:58:09;14.02;;;7.57;;
59390;SDS011;53405;57.012;40.984;2022-10-19T17:00:56;15.32;;;8.35;;
59390;SDS011;53405;57.012;40.984;2022-10-19T17:03:47;20.05;;;10.93;;
59390;SDS011;53405;57.012;40.984;2022-10-19T17:06:36;23.38;;;12.43;;
59390;SDS011;53405;57.012;40.984;2022-10-19T17:09:23;24.73;;;13.32;;
59390;SDS011;53405;57.012;40.984;2022-10-19T17:12:27;24.25;;;12.15;;
59390;SDS011;53405;57.012;40.984;2022-10-19T17:15:15;25.90;;;12.05;;
59390;SDS011;53405;57.012;40.984;2022-10-19T17:18:23;21.48;;;11.48;;
59390;SDS011;53405;57.012;40.984;2022-10-19T17:21:12;19.33;;;10.93;;
59390;SDS011;53405;57.012;40.984;2022-10-19T17:24:02;17.80;;;9.25;;
59390;SDS011;53405;57.012;40.984;2022-10-19T17:26:53;17.17;;;9.55;;
59390;SDS011;53405;57.012;40.984;2022-10-19T17:29:41;19.50;;;9.45;;
59390;SDS011;53405;57.012;40.984;2022-10-19T17:32:28;14.52;;;8.60;;
59390;SDS011;53405;57.012;40.984;2022-10-19T17:35:16;17.40;;;9.43;;
59390;SDS011;53405;57.012;40.984;2022-10-19T17:38:04;19.35;;;10.90;;
59390;SDS011;53405;57.012;40.984;2022-10-19T17:40:52;13.82;;;7.72;;
59390;SDS011;53405;57.012;40.984;2022-10-19T17:43:41;14.77;;;7.90;;
59390;SDS011;53405;57.012;40.984;2022-10-19T17:46:30;12.63;;;7.20;;
59390;SDS011;53405;57.012;40.984;2022-10-19T17:49:19;12.05;;;6.43;;
59390;SDS011;53405;57.012;40.984;2022-10-19T17:52:07;13.98;;;7.85;;
59390;SDS011;53405;57.012;40.984;2022-10-19T17:54:54;15.32;;;7.35;;
59390;SDS011;53405;57.012;40.984;2022-10-19T17:57:58;16.38;;;7.85;;
59390;SDS011;53405;57.012;40.984;2022-10-19T18:00:46;12.38;;;6.80;;
59390;SDS011;53405;57.012;40.984;2022-10-19T18:03:38;11.75;;;6.72;;
59390;SDS011;53405;57.012;40.984;2022-10-19T18:06:27;12.05;;;6.10;;
59390;SDS011;53405;57.012;40.984;2022-10-19T18:09:17;13.50;;;5.95;;
59390;SDS011;53405;57.012;40.984;2022-10-19T18:12:05;8.75;;;5.32;;
59390;SDS011;53405;57.012;40.984;2022-10-19T18:14:54;12.68;;;5.45;;
59390;SDS011;53405;57.012;40.984;2022-10-19T18:17:42;12.82;;;5.43;;
59390;SDS011;53405;57.012;40.984;2022-10-19T18:20:29;10.88;;;5.60;;
59390;SDS011;53405;57.012;40.984;2022-10-19T18:23:16;19.80;;;10.05;;
59390;SDS011;53405;57.012;40.984;2022-10-19T18:26:06;10.75;;;5.00;;
59390;SDS011;53405;57.012;40.984;2022-10-19T18:28:56;8.35;;;4.50;;
59390;SDS011;53405;57.012;40.984;2022-10-19T18:31:45;10.32;;;4.88;;
59390;SDS011;53405;57.012;40.984;2022-10-19T18:34:38;10.73;;;4.82;;
59390;SDS011;53405;57.012;40.984;2022-10-19T18:37:25;8.48;;;5.10;;
59390;SDS011;53405;57.012;40.984;2022-10-19T18:40:13;7.45;;;4.15;;
59390;SDS011;53405;57.012;40.984;2022-10-19T18:43:00;6.70;;;4.07;;
59390;SDS011;53405;57.012;40.984;2022-10-19T18:45:52;8.35;;;4.03;;
59390;SDS011;53405;57.012;40.984;2022-10-19T18:48:40;11.70;;;5.95;;
59390;SDS011;53405;57.012;40.984;2022-10-19T18:51:28;7.45;;;3.65;;
59390;SDS011;53405;57.012;40.984;2022-10-19T18:54:15;7.68;;;3.65;;
59390;SDS011;53405;57.012;40.984;2022-10-19T18:57:03;7.65;;;4.03;;
59390;SDS011;53405;57.012;40.984;2022-10-19T18:59:51;7.05;;;3.50;;
59390;SDS011;53405;57.012;40.984;2022-10-19T19:02:38;7.70;;;3.67;;
59390;SDS011;53405;57.012;40.984;2022-10-19T19:05:32;6.22;;;3.50;;
59390;SDS011;53405;57.012;40.984;2022-10-19T19:08:19;7.68;;;3.25;;
59390;SDS011;53405;57.012;40.984;2022-10-19T19:11:10;8.18;;;3.00;;
59390;SDS011;53405;57.012;40.984;2022-10-19T19:14:04;7.25;;;3.15;;
59390;SDS011;53405;57.012;40.984;2022-10-19T19:17:03;6.30;;;2.85;;
59390;SDS011;53405;57.012;40.984;2022-10-19T19:19:51;7.55;;;3.45;;
59390;SDS011;53405;57.012;40.984;2022-10-19T19:22:38;7.30;;;3.05;;
59390;SDS011;53405;57.012;40.984;2022-10-19T19:25:26;6.82;;;3.25;;
59390;SDS011;53405;57.012;40.984;2022-10-19T19:28:13;8.07;;;2.63;;
59390;SDS011;53405;57.012;40.984;2022-10-19T19:31:01;5.28;;;2.65;;
59390;SDS011;53405;57.012;40.984;2022-10-19T19:34:10;6.93;;;4.25;;
59390;SDS011;53405;57.012;40.984;2022-10-19T19:36:58;6.13;;;2.47;;
59390;SDS011;53405;57.012;40.984;2022-10-19T19:39:45;3.83;;;2.10;;